logo
Rechercher aéroport 
image banner adimage banner adimage banner ad
image banner ad

ESSX - Vasteras/Johannisberg

Situé à , Sweden

ICAO - ESSX, IATA -

Données fournies par Airmate  

Information générale

Coordonnées: N59°34'33" E16°30'11"
Élévation : 25 feet MSL.
 
Voir autres Aéroports à Västmanlanda län

Données opérationnelles

Special qualification required
Heure actuelle UTC:
Heure actuelle locale:
Météo à : ESOW - Stockholm/Vasteras ( 7 km )
METAR: ESOW 130620Z AUTO 23010KT 210V270 9999 OVC008/// 08/07 Q1011
Voir NOTAMs / SUP AIP / TFR affectant cet aéroport [VIEW]
Fréquences de communication: [VIEW]

Pistes:

Identifiant RWYQFULongueur (ft)Largeur (ft)SurfaceLDA (ft)
05278975ASPH
23278975ASPH
162395164GRASS
342395164GRASS

Coordonnées de l'aéroport

Adresse: Sweden

Autres services d'aviation

Écoles de pilotage

Airways Flygutbildning Svenska Ab

Airways Flygutbildning Svenska Ab
+4621141800

Bf, Scandinavian Aviation Academy Ab

Bf, Scandinavian Aviation Academy Ab
info@bfsaa.se+4621802828

Flygteoriskolan Barkarby Ab

Flygteoriskolan Barkarby Ab

Heliair Sweden Ab

Heliair Sweden Ab
+4686562400

Clubs d'aviation (sans but lucratif)

Västerås Flygklubb

Västerås Flygklubb
info@vfk.nu+4621135612

Västerås Segelflygklubb

Västerås Segelflygklubb

Västerås Ul-Flygklubb

Västerås Ul-Flygklubb
+46705767575
+46705767575

Vue satellite de ESSX